Time,TemperatureF,DewpointF,PressureIn,WindDirection,WindDirectionDegrees,WindSpeedMPH,WindSpeedGustMPH,Humidity,HourlyPrecipIn,Conditions,Clouds,dailyrainin,SoftwareType,DateUTC
2013-11-06 00:02:00,32.0,16.3,30.27,NNW,332,1.0,1.0,52,0.00,,,0.19,Wunderground v.1.15,2013-11-06 07:02:00,
2013-11-06 00:07:00,31.9,16.2,30.27,NNE,26,1.0,2.0,52,0.00,,,0.00,Wunderground v.1.15,2013-11-06 07:07:00,
2013-11-06 00:12:00,31.8,16.2,30.27,NNE,23,1.0,1.0,52,0.00,,,0.00,Wunderground v.1.15,2013-11-06 07:12:00,
2013-11-06 00:17:00,31.7,16.1,30.28,NNW,334,1.0,2.0,52,0.00,,,0.00,Wunderground v.1.15,2013-11-06 07:17:00,
2013-11-06 00:23:00,31.8,15.7,30.28,NW,320,1.0,4.0,51,0.00,,,0.00,Wunderground v.1.15,2013-11-06 07:23:00,
2013-11-06 00:28:00,32.0,15.9,30.28,NNW,344,1.0,4.0,51,0.00,,,0.00,Wunderground v.1.15,2013-11-06 07:28:00,
2013-11-06 00:33:00,32.0,15.9,30.28,NNW,333,1.0,2.0,51,0.00,,,0.00,Wunderground v.1.15,2013-11-06 07:33:00,
2013-11-06 00:38:00,31.8,16.2,30.28,NE,49,1.0,1.0,52,0.00,,,0.00,Wunderground v.1.15,2013-11-06 07:38:00,
2013-11-06 00:43:00,31.5,16.3,30.29,NE,38,0.0,1.0,53,0.00,,,0.00,Wunderground v.1.15,2013-11-06 07:43:00,
2013-11-06 00:49:00,31.2,16.0,30.29,NNE,29,0.0,0.0,53,0.00,,,0.00,Wunderground v.1.15,2013-11-06 07:49:00,
2013-11-06 00:55:00,31.0,15.8,30.29,NNW,334,0.0,1.0,53,0.00,,,0.00,Wunderground v.1.15,2013-11-06 07:55:00,
2013-11-06 01:00:00,30.9,15.8,30.29,NNE,27,0.0,0.0,53,0.00,,,0.00,Wunderground v.1.15,2013-11-06 08:00:00,
2013-11-06 01:05:00,30.8,15.7,30.29,NE,41,0.0,0.0,53,0.00,,,0.00,Wunderground v.1.15,2013-11-06 08:05:00,
2013-11-06 01:11:00,30.5,15.4,30.29,North,10,0.0,0.0,53,0.00,,,0.00,Wunderground v.1.15,2013-11-06 08:11:00,
2013-11-06 01:16:00,30.3,15.6,30.30,North,10,0.0,0.0,54,0.00,,,0.00,Wunderground v.1.15,2013-11-06 08:16:00,
2013-11-06 01:21:00,30.4,15.7,30.30,ENE,59,0.0,0.0,54,0.00,,,0.00,Wunderground v.1.15,2013-11-06 08:21:00,
2013-11-06 01:27:00,30.3,16.0,30.30,ENE,60,0.0,0.0,55,0.00,,,0.00,Wunderground v.1.15,2013-11-06 08:27:00,
2013-11-06 01:33:00,29.9,15.7,30.29,ENE,58,0.0,0.0,55,0.00,,,0.00,Wunderground v.1.15,2013-11-06 08:33:00,
2013-11-06 01:39:00,29.8,15.6,30.30,NE,41,0.0,0.0,55,0.00,,,0.00,Wunderground v.1.15,2013-11-06 08:39:00,
2013-11-06 01:44:00,30.0,15.3,30.30,NNW,340,1.0,3.0,54,0.00,,,0.00,Wunderground v.1.15,2013-11-06 08:44:00,
2013-11-06 01:50:00,30.3,15.2,30.30,NNE,12,2.0,2.0,53,0.00,,,0.00,Wunderground v.1.15,2013-11-06 08:50:00,
2013-11-06 01:55:00,30.5,14.9,30.30,North,5,2.0,2.0,52,0.00,,,0.00,Wunderground v.1.15,2013-11-06 08:55:00,
2013-11-06 02:00:00,30.7,14.7,30.30,North,351,1.0,1.0,51,0.00,,,0.00,Wunderground v.1.15,2013-11-06 09:00:00,
2013-11-06 02:06:00,30.7,15.1,30.30,North,359,1.0,2.0,52,0.00,,,0.00,Wunderground v.1.15,2013-11-06 09:06:00,
2013-11-06 02:11:00,30.6,15.0,30.31,North,358,1.0,1.0,52,0.00,,,0.00,Wunderground v.1.15,2013-11-06 09:11:00,
2013-11-06 02:17:00,30.5,14.5,30.31,North,360,1.0,2.0,51,0.00,,,0.00,Wunderground v.1.15,2013-11-06 09:17:00,
2013-11-06 02:22:00,30.9,13.5,30.31,NNW,332,2.0,5.0,48,0.00,,,0.00,Wunderground v.1.15,2013-11-06 09:22:00,
2013-11-06 02:28:00,31.0,14.0,30.32,NNW,345,2.0,2.0,49,0.00,,,0.00,Wunderground v.1.15,2013-11-06 09:28:00,
2013-11-06 02:34:00,30.8,13.9,30.32,NNE,13,1.0,2.0,49,0.00,,,0.00,Wunderground v.1.15,2013-11-06 09:34:00,
2013-11-06 02:40:00,30.3,14.3,30.32,North,3,1.0,1.0,51,0.00,,,0.00,Wunderground v.1.15,2013-11-06 09:40:00,
2013-11-06 02:45:00,30.0,14.0,30.32,NNE,13,0.0,1.0,51,0.00,,,0.00,Wunderground v.1.15,2013-11-06 09:45:00,
2013-11-06 02:51:00,29.7,14.2,30.32,NNE,26,0.0,0.0,52,0.00,,,0.00,Wunderground v.1.15,2013-11-06 09:51:00,
2013-11-06 02:56:00,29.3,14.3,30.32,North,6,0.0,0.0,53,0.00,,,0.00,Wunderground v.1.15,2013-11-06 09:56:00,
2013-11-06 03:01:00,29.1,14.1,30.32,North,10,0.0,0.0,53,0.00,,,0.00,Wunderground v.1.15,2013-11-06 10:01:00,
2013-11-06 03:07:00,29.1,13.6,30.33,North,353,0.0,0.0,52,0.00,,,0.00,Wunderground v.1.15,2013-11-06 10:07:00,
2013-11-06 03:13:00,29.1,14.1,30.33,North,354,0.0,0.0,53,0.00,,,0.00,Wunderground v.1.15,2013-11-06 10:13:00,
2013-11-06 03:19:00,28.8,14.2,30.33,NNE,25,0.0,0.0,54,0.00,,,0.00,Wunderground v.1.15,2013-11-06 10:19:00,
2013-11-06 03:24:00,28.4,14.3,30.33,NNE,25,0.0,0.0,55,0.00,,,0.00,Wunderground v.1.15,2013-11-06 10:24:00,
2013-11-06 03:30:00,28.2,14.1,30.33,NE,40,0.0,0.0,55,0.00,,,0.00,Wunderground v.1.15,2013-11-06 10:30:00,
2013-11-06 03:36:00,28.1,14.4,30.34,NE,40,0.0,0.0,56,0.00,,,0.00,Wunderground v.1.15,2013-11-06 10:36:00,
2013-11-06 03:42:00,28.0,14.3,30.35,NE,40,0.0,0.0,56,0.00,,,0.00,Wunderground v.1.15,2013-11-06 10:42:00,
2013-11-06 03:47:00,28.0,14.3,30.35,NE,41,0.0,0.0,56,0.00,,,0.00,Wunderground v.1.15,2013-11-06 10:47:00,
2013-11-06 03:53:00,27.9,15.0,30.35,NE,49,0.0,0.0,58,0.00,,,0.00,Wunderground v.1.15,2013-11-06 10:53:00,
2013-11-06 03:59:00,27.7,15.2,30.36,NE,49,0.0,0.0,59,0.00,,,0.00,Wunderground v.1.15,2013-11-06 10:59:00,
2013-11-06 04:04:00,27.3,14.8,30.35,NE,49,0.0,0.0,59,0.00,,,0.00,Wunderground v.1.15,2013-11-06 11:04:00,
2013-11-06 04:09:00,26.8,14.8,30.36,NE,49,0.0,0.0,60,0.00,,,0.00,Wunderground v.1.15,2013-11-06 11:09:00,
2013-11-06 04:14:00,26.4,15.1,30.36,NE,49,0.0,0.0,62,0.00,,,0.00,Wunderground v.1.15,2013-11-06 11:14:00,
2013-11-06 04:19:00,26.2,14.9,30.36,NE,49,0.0,0.0,62,0.00,,,0.00,Wunderground v.1.15,2013-11-06 11:19:00,
2013-11-06 04:25:00,26.2,15.7,30.36,ESE,105,0.0,0.0,64,0.00,,,0.00,Wunderground v.1.15,2013-11-06 11:25:00,
2013-11-06 04:30:00,25.9,15.7,30.36,ESE,107,0.0,0.0,65,0.00,,,0.00,Wunderground v.1.15,2013-11-06 11:30:00,
2013-11-06 04:36:00,25.9,16.1,30.37,ESE,114,0.0,0.0,66,0.00,,,0.00,Wunderground v.1.15,2013-11-06 11:36:00,
2013-11-06 04:42:00,25.8,16.0,30.37,ESE,119,0.0,0.0,66,0.00,,,0.00,Wunderground v.1.15,2013-11-06 11:42:00,
2013-11-06 04:48:00,25.9,15.7,30.37,ESE,120,0.0,0.0,65,0.00,,,0.00,Wunderground v.1.15,2013-11-06 11:48:00,
2013-11-06 04:54:00,25.8,15.3,30.37,East,95,0.0,0.0,64,0.00,,,0.00,Wunderground v.1.15,2013-11-06 11:54:00,
2013-11-06 04:59:00,26.1,14.8,30.37,East,101,0.0,0.0,62,0.00,,,0.00,Wunderground v.1.15,2013-11-06 11:59:00,
2013-11-06 05:05:00,26.2,14.6,30.37,East,84,0.0,0.0,61,0.00,,,0.00,Wunderground v.1.15,2013-11-06 12:05:00,
2013-11-06 05:10:00,26.1,15.2,30.38,SE,126,0.0,0.0,63,0.00,,,0.00,Wunderground v.1.15,2013-11-06 12:10:00,
2013-11-06 05:16:00,25.9,15.0,30.38,SE,125,0.0,0.0,63,0.00,,,0.00,Wunderground v.1.15,2013-11-06 12:16:00,
2013-11-06 05:21:00,25.8,15.3,30.38,SE,126,0.0,0.0,64,0.00,,,0.00,Wunderground v.1.15,2013-11-06 12:21:00,
2013-11-06 05:26:00,25.6,15.1,30.38,SE,126,0.0,0.0,64,0.00,,,0.00,Wunderground v.1.15,2013-11-06 12:26:00,
2013-11-06 05:32:00,25.5,15.4,30.39,SE,124,0.0,0.0,65,0.00,,,0.00,Wunderground v.1.15,2013-11-06 12:32:00,
2013-11-06 05:38:00,25.3,15.5,30.40,SE,124,0.0,0.0,66,0.00,,,0.00,Wunderground v.1.15,2013-11-06 12:38:00,
2013-11-06 05:43:00,25.2,15.4,30.40,SE,125,0.0,0.0,66,0.00,,,0.00,Wunderground v.1.15,2013-11-06 12:43:00,
2013-11-06 05:49:00,25.1,15.3,30.41,SE,124,0.0,0.0,66,0.00,,,0.00,Wunderground v.1.15,2013-11-06 12:49:00,
2013-11-06 05:55:00,25.3,15.2,30.41,East,89,0.0,0.0,65,0.00,,,0.00,Wunderground v.1.15,2013-11-06 12:55:00,
2013-11-06 06:00:00,25.3,15.2,30.41,East,89,0.0,0.0,65,0.00,,,0.00,Wunderground v.1.15,2013-11-06 13:00:00,
2013-11-06 06:05:00,25.2,15.1,30.41,East,89,0.0,0.0,65,0.00,,,0.00,Wunderground v.1.15,2013-11-06 13:05:00,
2013-11-06 06:11:00,25.1,15.0,30.41,East,89,0.0,0.0,65,0.00,,,0.00,Wunderground v.1.15,2013-11-06 13:11:00,
2013-11-06 06:17:00,24.8,15.4,30.42,East,89,0.0,0.0,67,0.00,,,0.00,Wunderground v.1.15,2013-11-06 13:17:00,
2013-11-06 06:22:00,24.7,15.6,30.42,ESE,110,0.0,0.0,68,0.00,,,0.00,Wunderground v.1.15,2013-11-06 13:22:00,
2013-11-06 06:28:00,24.6,15.2,30.43,SE,127,0.0,0.0,67,0.00,,,0.00,Wunderground v.1.15,2013-11-06 13:28:00,
2013-11-06 06:33:00,24.4,15.0,30.43,SE,127,0.0,0.0,67,0.00,,,0.00,Wunderground v.1.15,2013-11-06 13:33:00,
2013-11-06 06:39:00,24.8,15.7,30.43,East,96,0.0,0.0,68,0.00,,,0.00,Wunderground v.1.15,2013-11-06 13:39:00,
2013-11-06 06:44:00,24.9,15.5,30.44,East,96,0.0,0.0,67,0.00,,,0.00,Wunderground v.1.15,2013-11-06 13:44:00,
2013-11-06 06:49:00,24.9,15.1,30.44,ESE,108,0.0,0.0,66,0.00,,,0.00,Wunderground v.1.15,2013-11-06 13:49:00,
2013-11-06 06:55:00,25.1,15.0,30.45,East,99,0.0,0.0,65,0.00,,,0.00,Wunderground v.1.15,2013-11-06 13:55:00,
2013-11-06 07:00:00,25.6,15.1,30.45,East,99,0.0,0.0,64,0.00,,,0.00,Wunderground v.1.15,2013-11-06 14:00:00,
2013-11-06 07:06:00,26.1,15.2,30.46,East,99,0.0,0.0,63,0.00,,,0.00,Wunderground v.1.15,2013-11-06 14:06:00,
2013-11-06 07:11:00,26.4,15.1,30.46,East,98,0.0,0.0,62,0.00,,,0.00,Wunderground v.1.15,2013-11-06 14:11:00,
2013-11-06 07:16:00,27.1,15.0,30.46,East,99,0.0,0.0,60,0.00,,,0.00,Wunderground v.1.15,2013-11-06 14:16:00,
2013-11-06 07:21:00,28.0,14.7,30.46,NNE,29,0.0,0.0,57,0.00,,,0.00,Wunderground v.1.15,2013-11-06 14:21:00,
2013-11-06 07:26:00,28.9,14.3,30.46,ENE,63,0.0,0.0,54,0.00,,,0.00,Wunderground v.1.15,2013-11-06 14:26:00,
2013-11-06 07:31:00,29.7,14.2,30.47,NE,37,0.0,0.0,52,0.00,,,0.00,Wunderground v.1.15,2013-11-06 14:31:00,
2013-11-06 07:37:00,30.5,14.0,30.47,NNW,343,0.0,0.0,50,0.00,,,0.00,Wunderground v.1.15,2013-11-06 14:37:00,
2013-11-06 07:42:00,31.0,14.5,30.48,NNW,343,0.0,0.0,50,0.00,,,0.00,Wunderground v.1.15,2013-11-06 14:42:00,
2013-11-06 07:48:00,31.7,14.2,30.48,North,354,0.0,0.0,48,0.00,,,0.00,Wunderground v.1.15,2013-11-06 14:48:00,
2013-11-06 07:54:00,32.4,13.9,30.48,NNW,347,0.0,1.0,46,0.00,,,0.00,Wunderground v.1.15,2013-11-06 14:54:00,
2013-11-06 07:59:00,32.8,12.7,30.49,NNW,334,0.0,3.0,43,0.00,,,0.00,Wunderground v.1.15,2013-11-06 14:59:00,
2013-11-06 08:04:00,33.2,13.1,30.49,NNW,332,1.0,3.0,43,0.00,,,0.00,Wunderground v.1.15,2013-11-06 15:04:00,
2013-11-06 08:10:00,33.6,12.9,30.49,North,5,3.0,5.0,42,0.00,,,0.00,Wunderground v.1.15,2013-11-06 15:10:00,
2013-11-06 08:16:00,34.0,13.3,30.49,NNW,343,3.0,5.0,42,0.00,,,0.00,Wunderground v.1.15,2013-11-06 15:16:00,
2013-11-06 08:21:00,34.2,12.9,30.50,NW,318,2.0,3.0,41,0.00,,,0.00,Wunderground v.1.15,2013-11-06 15:21:00,
2013-11-06 08:27:00,34.2,12.9,30.50,NW,312,3.0,5.0,41,0.00,,,0.00,Wunderground v.1.15,2013-11-06 15:27:00,
2013-11-06 08:32:00,34.3,13.6,30.50,NNW,334,4.0,6.0,42,0.00,,,0.00,Wunderground v.1.15,2013-11-06 15:32:00,
2013-11-06 08:38:00,34.7,13.9,30.50,North,352,4.0,4.0,42,0.00,,,0.00,Wunderground v.1.15,2013-11-06 15:38:00,
2013-11-06 08:43:00,34.9,13.5,30.50,NW,314,4.0,6.0,41,0.00,,,0.00,Wunderground v.1.15,2013-11-06 15:43:00,
2013-11-06 08:49:00,35.0,12.5,30.50,NNW,328,4.0,5.0,39,0.00,,,0.00,Wunderground v.1.15,2013-11-06 15:49:00,
2013-11-06 08:54:00,35.2,12.7,30.50,NW,323,5.0,7.0,39,0.00,,,0.00,Wunderground v.1.15,2013-11-06 15:54:00,
2013-11-06 08:59:00,35.3,12.8,30.50,WNW,294,5.0,9.0,39,0.00,,,0.00,Wunderground v.1.15,2013-11-06 15:59:00,
2013-11-06 09:05:00,35.5,13.0,30.50,NW,317,6.0,10.0,39,0.00,,,0.00,Wunderground v.1.15,2013-11-06 16:05:00,
2013-11-06 09:11:00,35.9,13.3,30.50,NE,37,6.0,8.0,39,0.00,,,0.00,Wunderground v.1.15,2013-11-06 16:11:00,
2013-11-06 09:16:00,35.9,12.7,30.51,North,8,6.0,14.0,38,0.00,,,0.00,Wunderground v.1.15,2013-11-06 16:16:00,
2013-11-06 09:22:00,36.1,12.3,30.51,NNW,342,7.0,12.0,37,0.00,,,0.00,Wunderground v.1.15,2013-11-06 16:22:00,
2013-11-06 09:27:00,36.2,12.4,30.50,NNW,335,6.0,12.0,37,0.00,,,0.00,Wunderground v.1.15,2013-11-06 16:27:00,
2013-11-06 09:32:00,36.5,13.3,30.50,NNW,330,6.0,7.0,38,0.00,,,0.00,Wunderground v.1.15,2013-11-06 16:32:00,
2013-11-06 09:37:00,37.1,13.8,30.51,NW,317,5.0,8.0,38,0.00,,,0.00,Wunderground v.1.15,2013-11-06 16:37:00,
2013-11-06 09:42:00,37.3,13.4,30.51,NNW,331,5.0,6.0,37,0.00,,,0.00,Wunderground v.1.15,2013-11-06 16:42:00,
2013-11-06 09:47:00,37.2,12.7,30.51,NW,319,6.0,9.0,36,0.00,,,0.00,Wunderground v.1.15,2013-11-06 16:47:00,
2013-11-06 09:52:00,37.2,12.7,30.51,NW,319,7.0,8.0,36,0.00,,,0.00,Wunderground v.1.15,2013-11-06 16:52:00,
2013-11-06 09:57:00,37.3,12.1,30.51,NW,321,7.0,9.0,35,0.00,,,0.00,Wunderground v.1.15,2013-11-06 16:57:00,
2013-11-06 10:02:00,37.5,12.3,30.51,NNE,20,6.0,9.0,35,0.00,,,0.00,Wunderground v.1.15,2013-11-06 17:02:00,
2013-11-06 10:08:00,37.9,13.3,30.51,NNW,337,7.0,7.0,36,0.00,,,0.00,Wunderground v.1.15,2013-11-06 17:08:00,
2013-11-06 10:14:00,38.4,13.1,30.51,WNW,294,6.0,8.0,35,0.00,,,0.00,Wunderground v.1.15,2013-11-06 17:14:00,
2013-11-06 10:19:00,38.8,12.1,30.51,WNW,293,7.0,8.0,33,0.00,,,0.00,Wunderground v.1.15,2013-11-06 17:19:00,
2013-11-06 10:24:00,38.8,12.1,30.51,North,8,7.0,8.0,33,0.00,,,0.00,Wunderground v.1.15,2013-11-06 17:24:00,
2013-11-06 10:31:00,39.3,13.2,30.51,NNW,337,5.0,7.0,34,0.00,,,0.00,Wunderground v.1.15,2013-11-06 17:31:00,
2013-11-06 10:36:00,39.5,13.4,30.50,NE,44,5.0,14.0,34,0.00,,,0.00,Wunderground v.1.15,2013-11-06 17:36:00,
2013-11-06 10:41:00,39.7,12.9,30.51,NNE,20,5.0,7.0,33,0.00,,,0.00,Wunderground v.1.15,2013-11-06 17:41:00,
2013-11-06 10:46:00,39.6,12.8,30.51,NNW,340,6.0,10.0,33,0.00,,,0.00,Wunderground v.1.15,2013-11-06 17:46:00,
2013-11-06 10:51:00,40.2,13.3,30.51,NNE,19,6.0,11.0,33,0.00,,,0.00,Wunderground v.1.15,2013-11-06 17:51:00,
2013-11-06 10:56:00,40.4,13.5,30.50,North,8,5.0,11.0,33,0.00,,,0.00,Wunderground v.1.15,2013-11-06 17:56:00,
2013-11-06 11:02:00,40.4,12.8,30.50,NE,47,6.0,9.0,32,0.00,,,0.00,Wunderground v.1.15,2013-11-06 18:02:00,
2013-11-06 11:08:00,40.9,12.5,30.50,NE,44,7.0,7.0,31,0.00,,,0.00,Wunderground v.1.15,2013-11-06 18:08:00,
2013-11-06 11:13:00,40.9,11.8,30.50,NNE,30,7.0,7.0,30,0.00,,,0.00,Wunderground v.1.15,2013-11-06 18:13:00,
2013-11-06 11:18:00,41.4,13.0,30.50,NW,314,5.0,6.0,31,0.00,,,0.00,Wunderground v.1.15,2013-11-06 18:18:00,
2013-11-06 11:24:00,41.6,12.4,30.50,North,4,5.0,9.0,30,0.00,,,0.00,Wunderground v.1.15,2013-11-06 18:24:00,
2013-11-06 11:30:00,42.2,13.7,30.50,NNE,19,6.0,6.0,31,0.00,,,0.00,Wunderground v.1.15,2013-11-06 18:30:00,
2013-11-06 11:35:00,42.2,12.2,30.50,NNE,32,6.0,11.0,29,0.00,,,0.00,Wunderground v.1.15,2013-11-06 18:35:00,
2013-11-06 11:41:00,42.5,13.2,30.49,NE,35,6.0,10.0,30,0.00,,,0.00,Wunderground v.1.15,2013-11-06 18:41:00,
2013-11-06 11:46:00,43.3,13.1,30.49,West,262,6.0,10.0,29,0.00,,,0.00,Wunderground v.1.15,2013-11-06 18:46:00,
2013-11-06 11:51:00,43.7,12.7,30.49,North,8,7.0,8.0,28,0.00,,,0.00,Wunderground v.1.15,2013-11-06 18:51:00,
2013-11-06 11:57:00,43.3,12.3,30.49,WNW,295,7.0,13.0,28,0.00,,,0.00,Wunderground v.1.15,2013-11-06 18:57:00,
2013-11-06 12:02:00,43.8,11.9,30.48,NE,43,7.0,9.0,27,0.00,,,0.00,Wunderground v.1.15,2013-11-06 19:02:00,
2013-11-06 12:08:00,43.9,12.8,30.48,NW,323,6.0,6.0,28,0.00,,,0.00,Wunderground v.1.15,2013-11-06 19:08:00,
2013-11-06 12:13:00,44.3,10.6,30.48,NNE,15,6.0,12.0,25,0.00,,,0.00,Wunderground v.1.15,2013-11-06 19:13:00,
2013-11-06 12:19:00,44.5,8.9,30.47,WNW,293,7.0,7.0,23,0.00,,,0.00,Wunderground v.1.15,2013-11-06 19:19:00,
2013-11-06 12:25:00,44.7,10.1,30.47,NNE,20,7.0,8.0,24,0.00,,,0.00,Wunderground v.1.15,2013-11-06 19:25:00,
2013-11-06 12:30:00,44.5,9.9,30.47,NNE,12,7.0,9.0,24,0.00,,,0.00,Wunderground v.1.15,2013-11-06 19:30:00,
2013-11-06 12:35:00,45.2,8.5,30.47,North,350,8.0,12.0,22,0.00,,,0.00,Wunderground v.1.15,2013-11-06 19:35:00,
2013-11-06 12:41:00,45.9,11.1,30.46,North,351,6.0,7.0,24,0.00,,,0.00,Wunderground v.1.15,2013-11-06 19:41:00,
2013-11-06 12:46:00,46.4,9.6,30.46,North,1,5.0,8.0,22,0.00,,,0.00,Wunderground v.1.15,2013-11-06 19:46:00,
2013-11-06 12:52:00,46.3,9.5,30.46,WNW,298,7.0,9.0,22,0.00,,,0.00,Wunderground v.1.15,2013-11-06 19:52:00,
2013-11-06 12:57:00,46.0,9.2,30.46,NNE,31,8.0,11.0,22,0.00,,,0.00,Wunderground v.1.15,2013-11-06 19:57:00,
2013-11-06 13:02:00,46.3,7.3,30.46,North,351,8.0,12.0,20,0.00,,,0.00,Wunderground v.1.15,2013-11-06 20:02:00,
2013-11-06 13:08:00,46.9,7.8,30.46,WNW,293,7.0,9.0,20,0.00,,,0.00,Wunderground v.1.15,2013-11-06 20:08:00,
2013-11-06 13:14:00,47.0,9.0,30.45,NNW,335,7.0,13.0,21,0.00,,,0.00,Wunderground v.1.15,2013-11-06 20:14:00,
2013-11-06 13:19:00,46.9,10.0,30.46,NW,312,6.0,7.0,22,0.00,,,0.00,Wunderground v.1.15,2013-11-06 20:19:00,
2013-11-06 13:24:00,47.4,10.4,30.46,NNW,328,5.0,7.0,22,0.00,,,0.00,Wunderground v.1.15,2013-11-06 20:24:00,
2013-11-06 13:29:00,47.7,10.6,30.46,NNE,26,6.0,9.0,22,0.00,,,0.00,Wunderground v.1.15,2013-11-06 20:29:00,
2013-11-06 13:34:00,47.6,10.6,30.45,WNW,298,8.0,10.0,22,0.00,,,0.00,Wunderground v.1.15,2013-11-06 20:34:00,
2013-11-06 13:39:00,47.9,9.8,30.45,NW,309,7.0,7.0,21,0.00,,,0.00,Wunderground v.1.15,2013-11-06 20:39:00,
2013-11-06 13:45:00,48.7,9.4,30.45,WNW,298,6.0,7.0,20,0.00,,,0.00,Wunderground v.1.15,2013-11-06 20:45:00,
2013-11-06 13:50:00,48.8,9.4,30.45,NW,321,6.0,6.0,20,0.00,,,0.00,Wunderground v.1.15,2013-11-06 20:50:00,
2013-11-06 13:55:00,48.7,8.2,30.45,NNE,18,7.0,10.0,19,0.00,,,0.00,Wunderground v.1.15,2013-11-06 20:55:00,
2013-11-06 14:00:00,48.9,9.5,30.45,WNW,302,7.0,7.0,20,0.00,,,0.00,Wunderground v.1.15,2013-11-06 21:00:00,
2013-11-06 14:05:00,48.9,9.5,30.45,NW,311,7.0,8.0,20,0.00,,,0.00,Wunderground v.1.15,2013-11-06 21:05:00,
2013-11-06 14:10:00,49.5,10.0,30.45,NE,48,7.0,11.0,20,0.00,,,0.00,Wunderground v.1.15,2013-11-06 21:10:00,
2013-11-06 14:15:00,49.6,9.0,30.45,NW,325,7.0,11.0,19,0.00,,,0.00,Wunderground v.1.15,2013-11-06 21:15:00,
2013-11-06 14:20:00,49.4,11.0,30.45,NW,326,7.0,11.0,21,0.00,,,0.00,Wunderground v.1.15,2013-11-06 21:20:00,
2013-11-06 14:26:00,49.3,10.9,30.45,NW,312,8.0,11.0,21,0.00,,,0.00,Wunderground v.1.15,2013-11-06 21:26:00,
2013-11-06 14:31:00,49.7,11.3,30.45,NW,324,7.0,8.0,21,0.00,,,0.00,Wunderground v.1.15,2013-11-06 21:31:00,
2013-11-06 14:36:00,49.7,11.3,30.45,WNW,297,7.0,9.0,21,0.00,,,0.00,Wunderground v.1.15,2013-11-06 21:36:00,
2013-11-06 14:41:00,50.0,12.6,30.45,North,354,6.0,9.0,22,0.00,,,0.00,Wunderground v.1.15,2013-11-06 21:41:00,
2013-11-06 14:47:00,50.1,12.7,30.45,North,349,5.0,9.0,22,0.00,,,0.00,Wunderground v.1.15,2013-11-06 21:47:00,
2013-11-06 14:52:00,50.1,12.7,30.45,NNE,18,5.0,7.0,22,0.00,,,0.00,Wunderground v.1.15,2013-11-06 21:52:00,
2013-11-06 14:58:00,50.3,12.8,30.45,NNW,342,6.0,8.0,22,0.00,,,0.00,Wunderground v.1.15,2013-11-06 21:58:00,
2013-11-06 15:04:00,50.3,13.9,30.44,NNW,335,7.0,9.0,23,0.00,,,0.00,Wunderground v.1.15,2013-11-06 22:04:00,
2013-11-06 15:10:00,50.6,14.1,30.45,NNE,23,7.0,7.0,23,0.00,,,0.00,Wunderground v.1.15,2013-11-06 22:10:00,
2013-11-06 15:15:00,50.6,13.1,30.45,NNE,12,7.0,9.0,22,0.00,,,0.00,Wunderground v.1.15,2013-11-06 22:15:00,
2013-11-06 15:20:00,51.0,13.4,30.44,NW,307,6.0,8.0,22,0.00,,,0.00,Wunderground v.1.15,2013-11-06 22:20:00,
2013-11-06 15:25:00,51.1,13.5,30.44,NW,318,6.0,14.0,22,0.00,,,0.00,Wunderground v.1.15,2013-11-06 22:25:00,
2013-11-06 15:31:00,50.9,14.4,30.44,NW,318,6.0,10.0,23,0.00,,,0.00,Wunderground v.1.15,2013-11-06 22:31:00,
2013-11-06 15:36:00,51.1,14.5,30.44,WSW,245,6.0,10.0,23,0.00,,,0.00,Wunderground v.1.15,2013-11-06 22:36:00,
2013-11-06 15:41:00,51.1,15.5,30.44,NW,305,5.0,8.0,24,0.00,,,0.00,Wunderground v.1.15,2013-11-06 22:41:00,
2013-11-06 15:47:00,50.9,15.3,30.44,SW,217,5.0,8.0,24,0.00,,,0.00,Wunderground v.1.15,2013-11-06 22:47:00,
2013-11-06 15:53:00,50.7,15.2,30.44,WNW,302,6.0,10.0,24,0.00,,,0.00,Wunderground v.1.15,2013-11-06 22:53:00,
2013-11-06 15:58:00,50.8,16.2,30.44,North,359,5.0,6.0,25,0.00,,,0.00,Wunderground v.1.15,2013-11-06 22:58:00,
2013-11-06 16:04:00,50.8,16.2,30.44,North,356,4.0,6.0,25,0.00,,,0.00,Wunderground v.1.15,2013-11-06 23:04:00,
2013-11-06 16:09:00,50.9,16.3,30.44,West,280,4.0,8.0,25,0.00,,,0.00,Wunderground v.1.15,2013-11-06 23:09:00,
2013-11-06 16:14:00,50.7,15.2,30.44,NNW,342,5.0,8.0,24,0.00,,,0.00,Wunderground v.1.15,2013-11-06 23:14:00,
2013-11-06 16:20:00,50.6,16.0,30.44,WNW,301,5.0,6.0,25,0.00,,,0.00,Wunderground v.1.15,2013-11-06 23:20:00,
2013-11-06 16:25:00,50.5,15.9,30.44,NW,316,5.0,6.0,25,0.00,,,0.00,Wunderground v.1.15,2013-11-06 23:25:00,
2013-11-06 16:31:00,50.4,16.8,30.44,WNW,293,5.0,5.0,26,0.00,,,0.00,Wunderground v.1.15,2013-11-06 23:31:00,
2013-11-06 16:36:00,50.3,15.8,30.44,WNW,284,4.0,5.0,25,0.00,,,0.00,Wunderground v.1.15,2013-11-06 23:36:00,
2013-11-06 16:42:00,50.2,16.6,30.44,WNW,287,4.0,4.0,26,0.00,,,0.00,Wunderground v.1.15,2013-11-06 23:42:00,
2013-11-06 16:48:00,49.9,16.3,30.44,WNW,294,3.0,3.0,26,0.00,,,0.00,Wunderground v.1.15,2013-11-06 23:48:00,
2013-11-06 16:53:00,49.6,16.1,30.44,NNW,338,4.0,6.0,26,0.00,,,0.00,Wunderground v.1.15,2013-11-06 23:53:00,
2013-11-06 16:58:00,49.3,16.7,30.44,NNE,13,3.0,3.0,27,0.00,,,0.00,Wunderground v.1.15,2013-11-06 23:58:00,
2013-11-06 17:04:00,49.0,16.4,30.44,North,352,3.0,5.0,27,0.00,,,0.00,Wunderground v.1.15,2013-11-07 00:04:00,
2013-11-06 17:10:00,48.4,16.7,30.44,NNW,332,3.0,3.0,28,0.00,,,0.00,Wunderground v.1.15,2013-11-07 00:10:00,
2013-11-06 17:15:00,47.9,16.3,30.44,North,5,4.0,4.0,28,0.00,,,0.00,Wunderground v.1.15,2013-11-07 00:15:00,
2013-11-06 17:21:00,47.6,16.9,30.44,NNW,337,5.0,5.0,29,0.00,,,0.00,Wunderground v.1.15,2013-11-07 00:21:00,
2013-11-06 17:27:00,47.3,16.6,30.44,NNE,20,5.0,7.0,29,0.00,,,0.00,Wunderground v.1.15,2013-11-07 00:27:00,
2013-11-06 17:32:00,47.1,17.2,30.44,North,5,4.0,5.0,30,0.00,,,0.00,Wunderground v.1.15,2013-11-07 00:32:00,
2013-11-06 17:37:00,46.7,17.6,30.44,NNW,348,3.0,5.0,31,0.00,,,0.00,Wunderground v.1.15,2013-11-07 00:37:00,
2013-11-06 17:43:00,46.3,17.3,30.44,NNE,28,2.0,4.0,31,0.00,,,0.00,Wunderground v.1.15,2013-11-07 00:43:00,
2013-11-06 17:49:00,46.0,17.7,30.45,NW,321,2.0,2.0,32,0.00,,,0.00,Wunderground v.1.15,2013-11-07 00:49:00,
2013-11-06 17:54:00,45.7,17.5,30.45,NE,35,1.0,2.0,32,0.00,,,0.00,Wunderground v.1.15,2013-11-07 00:54:00,
2013-11-06 17:59:00,45.5,17.3,30.45,NE,34,1.0,1.0,32,0.00,,,0.00,Wunderground v.1.15,2013-11-07 00:59:00,
2013-11-06 18:04:00,45.5,17.3,30.46,NNE,28,2.0,2.0,32,0.00,,,0.00,Wunderground v.1.15,2013-11-07 01:04:00,
2013-11-06 18:10:00,45.8,16.8,30.46,NNE,18,3.0,4.0,31,0.00,,,0.00,Wunderground v.1.15,2013-11-07 01:10:00,
2013-11-06 18:15:00,45.7,16.7,30.46,NE,41,3.0,5.0,31,0.00,,,0.00,Wunderground v.1.15,2013-11-07 01:15:00,
2013-11-06 18:21:00,45.3,17.1,30.46,NNE,23,3.0,4.0,32,0.00,,,0.00,Wunderground v.1.15,2013-11-07 01:21:00,
2013-11-06 18:27:00,45.0,16.9,30.46,NNE,18,2.0,4.0,32,0.00,,,0.00,Wunderground v.1.15,2013-11-07 01:27:00,
2013-11-06 18:32:00,44.9,17.5,30.46,NNE,30,3.0,4.0,33,0.00,,,0.00,Wunderground v.1.15,2013-11-07 01:32:00,
2013-11-06 18:37:00,44.8,17.4,30.47,North,11,2.0,4.0,33,0.00,,,0.00,Wunderground v.1.15,2013-11-07 01:37:00,
2013-11-06 18:42:00,44.7,17.3,30.47,NE,41,2.0,3.0,33,0.00,,,0.00,Wunderground v.1.15,2013-11-07 01:42:00,
2013-11-06 18:48:00,44.5,17.1,30.47,NE,49,2.0,2.0,33,0.00,,,0.00,Wunderground v.1.15,2013-11-07 01:48:00,
2013-11-06 18:53:00,44.5,17.1,30.47,North,352,2.0,4.0,33,0.00,,,0.00,Wunderground v.1.15,2013-11-07 01:53:00,
2013-11-06 18:58:00,44.5,17.1,30.47,NNW,341,2.0,2.0,33,0.00,,,0.00,Wunderground v.1.15,2013-11-07 01:58:00,
2013-11-06 19:04:00,44.6,17.2,30.47,North,356,2.0,3.0,33,0.00,,,0.00,Wunderground v.1.15,2013-11-07 02:04:00,
2013-11-06 19:10:00,44.4,17.1,30.48,NNE,32,1.0,2.0,33,0.00,,,0.00,Wunderground v.1.15,2013-11-07 02:10:00,
2013-11-06 19:15:00,44.3,17.0,30.48,NNE,18,1.0,3.0,33,0.00,,,0.00,Wunderground v.1.15,2013-11-07 02:15:00,
2013-11-06 19:20:00,44.2,16.9,30.48,NNE,30,2.0,4.0,33,0.00,,,0.00,Wunderground v.1.15,2013-11-07 02:20:00,
2013-11-06 19:25:00,44.2,16.9,30.49,NE,42,2.0,4.0,33,0.00,,,0.00,Wunderground v.1.15,2013-11-07 02:25:00,
2013-11-06 19:31:00,44.0,16.7,30.49,NNE,15,2.0,2.0,33,0.00,,,0.00,Wunderground v.1.15,2013-11-07 02:31:00,
2013-11-06 19:36:00,43.8,17.2,30.49,NNE,28,2.0,3.0,34,0.00,,,0.00,Wunderground v.1.15,2013-11-07 02:36:00,
2013-11-06 19:41:00,43.5,16.9,30.49,NNE,26,2.0,3.0,34,0.00,,,0.00,Wunderground v.1.15,2013-11-07 02:41:00,
2013-11-06 19:47:00,43.3,16.8,30.49,NNW,341,2.0,3.0,34,0.00,,,0.00,Wunderground v.1.15,2013-11-07 02:47:00,
2013-11-06 19:53:00,43.3,16.8,30.50,NNE,26,1.0,4.0,34,0.00,,,0.00,Wunderground v.1.15,2013-11-07 02:53:00,
2013-11-06 19:58:00,43.2,16.7,30.50,NNE,28,2.0,2.0,34,0.00,,,0.00,Wunderground v.1.15,2013-11-07 02:58:00,
2013-11-06 20:04:00,43.0,17.2,30.50,NNE,24,2.0,3.0,35,0.00,,,0.00,Wunderground v.1.15,2013-11-07 03:04:00,
2013-11-06 20:09:00,42.7,17.6,30.50,NE,38,2.0,2.0,36,0.00,,,0.00,Wunderground v.1.15,2013-11-07 03:09:00,
2013-11-06 20:14:00,42.5,17.4,30.50,North,8,2.0,2.0,36,0.00,,,0.00,Wunderground v.1.15,2013-11-07 03:14:00,
2013-11-06 20:20:00,42.4,16.6,30.50,NE,47,1.0,3.0,35,0.00,,,0.00,Wunderground v.1.15,2013-11-07 03:20:00,
2013-11-06 20:25:00,42.5,16.7,30.50,NNE,29,1.0,3.0,35,0.00,,,0.00,Wunderground v.1.15,2013-11-07 03:25:00,
2013-11-06 20:31:00,42.5,16.7,30.50,NNE,23,2.0,3.0,35,0.00,,,0.00,Wunderground v.1.15,2013-11-07 03:31:00,
2013-11-06 20:36:00,42.6,16.8,30.50,NNE,12,2.0,3.0,35,0.00,,,0.00,Wunderground v.1.15,2013-11-07 03:36:00,
2013-11-06 20:41:00,42.5,16.7,30.51,NNE,15,2.0,3.0,35,0.00,,,0.00,Wunderground v.1.15,2013-11-07 03:41:00,
2013-11-06 20:46:00,42.3,16.6,30.51,North,1,2.0,3.0,35,0.00,,,0.00,Wunderground v.1.15,2013-11-07 03:46:00,
2013-11-06 20:51:00,42.2,16.5,30.51,NNW,328,2.0,4.0,35,0.00,,,0.00,Wunderground v.1.15,2013-11-07 03:51:00,
2013-11-06 20:57:00,42.2,16.5,30.51,NNE,29,3.0,4.0,35,0.00,,,0.00,Wunderground v.1.15,2013-11-07 03:57:00,
2013-11-06 21:02:00,42.1,17.0,30.51,North,352,3.0,6.0,36,0.00,,,0.00,Wunderground v.1.15,2013-11-07 04:02:00,
2013-11-06 21:07:00,42.0,16.9,30.51,NE,35,3.0,6.0,36,0.00,,,0.00,Wunderground v.1.15,2013-11-07 04:07:00,
2013-11-06 21:12:00,41.8,16.8,30.51,NE,40,3.0,3.0,36,0.00,,,0.00,Wunderground v.1.15,2013-11-07 04:12:00,
2013-11-06 21:18:00,41.7,16.7,30.51,NNW,345,2.0,2.0,36,0.00,,,0.00,Wunderground v.1.15,2013-11-07 04:18:00,
2013-11-06 21:23:00,41.6,16.6,30.51,North,352,3.0,3.0,36,0.00,,,0.00,Wunderground v.1.15,2013-11-07 04:23:00,
2013-11-06 21:28:00,41.4,16.4,30.51,NNW,345,2.0,3.0,36,0.00,,,0.00,Wunderground v.1.15,2013-11-07 04:28:00,
2013-11-06 21:33:00,41.3,16.9,30.52,NE,41,2.0,3.0,37,0.00,,,0.00,Wunderground v.1.15,2013-11-07 04:33:00,
2013-11-06 21:39:00,41.2,16.9,30.52,NE,49,2.0,3.0,37,0.00,,,0.00,Wunderground v.1.15,2013-11-07 04:39:00,
2013-11-06 21:45:00,41.1,16.8,30.52,NNE,16,2.0,3.0,37,0.00,,,0.00,Wunderground v.1.15,2013-11-07 04:45:00,
2013-11-06 21:50:00,41.0,16.7,30.52,NNE,15,2.0,2.0,37,0.00,,,0.00,Wunderground v.1.15,2013-11-07 04:50:00,
2013-11-06 21:55:00,40.7,17.0,30.52,NNE,32,1.0,2.0,38,0.00,,,0.00,Wunderground v.1.15,2013-11-07 04:55:00,
2013-11-06 22:01:00,40.6,16.9,30.52,NE,40,1.0,2.0,38,0.00,,,0.00,Wunderground v.1.15,2013-11-07 05:01:00,
2013-11-06 22:02:00,40.6,16.9,30.52,NNW,346,2.0,2.0,38,0.00,,,0.00,Wunderground v.1.15,2013-11-07 05:02:00,
2013-11-06 22:03:00,40.6,16.9,30.52,NNE,18,2.0,2.0,38,0.00,,,0.00,Wunderground v.1.15,2013-11-07 05:03:00,
2013-11-06 22:04:00,40.6,16.9,30.52,NNE,18,2.0,2.0,38,0.00,,,0.00,Wunderground v.1.15,2013-11-07 05:04:00,
2013-11-06 22:07:00,40.5,16.9,30.52,NNE,13,2.0,2.0,38,0.00,,,0.00,Wunderground v.1.15,2013-11-07 05:07:00,
2013-11-06 22:08:00,40.4,16.8,30.52,NE,51,1.0,2.0,38,0.00,,,0.00,Wunderground v.1.15,2013-11-07 05:08:00,
2013-11-06 22:14:00,40.3,16.7,30.52,NE,37,1.0,2.0,38,0.00,,,0.00,Wunderground v.1.15,2013-11-07 05:14:00,
2013-11-06 22:15:00,40.3,17.3,30.52,NE,39,1.0,2.0,39,0.00,,,0.00,Wunderground v.1.15,2013-11-07 05:15:00,
2013-11-06 22:20:00,40.1,17.1,30.52,NE,40,1.0,1.0,39,0.00,,,0.00,Wunderground v.1.15,2013-11-07 05:20:00,
2013-11-06 22:25:00,40.0,17.0,30.52,NE,47,1.0,1.0,39,0.00,,,0.00,Wunderground v.1.15,2013-11-07 05:25:00,
2013-11-06 22:30:00,40.0,17.0,30.52,NE,54,1.0,3.0,39,0.00,,,0.00,Wunderground v.1.15,2013-11-07 05:30:00,
2013-11-06 22:36:00,40.0,17.0,30.52,NE,46,2.0,3.0,39,0.00,,,0.00,Wunderground v.1.15,2013-11-07 05:36:00,
2013-11-06 22:41:00,39.9,16.3,30.52,NNE,33,1.0,2.0,38,0.00,,,0.00,Wunderground v.1.15,2013-11-07 05:41:00,
2013-11-06 22:47:00,40.1,15.9,30.52,NE,44,1.0,4.0,37,0.00,,,0.00,Wunderground v.1.15,2013-11-07 05:47:00,
2013-11-06 22:52:00,40.0,15.8,30.52,NE,39,2.0,2.0,37,0.00,,,0.00,Wunderground v.1.15,2013-11-07 05:52:00,
2013-11-06 22:57:00,40.1,15.9,30.52,North,6,2.0,3.0,37,0.00,,,0.00,Wunderground v.1.15,2013-11-07 05:57:00,
2013-11-06 23:03:00,40.2,15.3,30.52,North,5,2.0,4.0,36,0.00,,,0.00,Wunderground v.1.15,2013-11-07 06:03:00,
2013-11-06 23:08:00,40.2,15.3,30.52,North,356,2.0,4.0,36,0.00,,,0.00,Wunderground v.1.15,2013-11-07 06:08:00,
2013-11-06 23:14:00,39.6,16.0,30.51,NNW,348,1.0,2.0,38,0.00,,,0.00,Wunderground v.1.15,2013-11-07 06:14:00,
2013-11-06 23:20:00,39.2,15.7,30.51,North,354,1.0,1.0,38,0.00,,,0.00,Wunderground v.1.15,2013-11-07 06:20:00,
2013-11-06 23:26:00,38.8,16.5,30.51,North,8,0.0,1.0,40,0.00,,,0.00,Wunderground v.1.15,2013-11-07 06:26:00,
2013-11-06 23:31:00,38.4,16.7,30.51,NNW,334,0.0,0.0,41,0.00,,,0.00,Wunderground v.1.15,2013-11-07 06:31:00,
2013-11-06 23:37:00,37.9,16.8,30.51,NNW,334,0.0,0.0,42,0.00,,,0.00,Wunderground v.1.15,2013-11-07 06:37:00,
2013-11-06 23:42:00,37.3,16.8,30.51,NNW,335,0.0,0.0,43,0.00,,,0.00,Wunderground v.1.15,2013-11-07 06:42:00,
2013-11-06 23:48:00,36.9,17.5,30.51,NE,51,0.0,0.0,45,0.00,,,0.00,Wunderground v.1.15,2013-11-07 06:48:00,
2013-11-06 23:53:00,36.9,17.5,30.51,ENE,65,0.0,0.0,45,0.00,,,0.00,Wunderground v.1.15,2013-11-07 06:53:00,
2013-11-06 23:59:00,36.7,17.3,30.51,NNE,32,0.0,0.0,45,0.00,,,0.00,Wunderground v.1.15,2013-11-07 06:59:00,